Terminal Aerodrome Forecast
Issued by NWS

Home | Current Version | Previous Version | Text Only | Print | Product List | Glossary On
Versions: 1 2 3 4 5 6 7 8 9 10 11 12 13 14 15 16 17 18 19 20 21 22
000
FTUS43 KGRR 220500 RRA
TAFBTL
TAF
KBTL 220543Z 2206/2306 15004KT 5SM BR OVC080
     FM220800 17003KT 3SM BR OVC015
     FM221100 16003KT 1 1/2SM BR OVC007
     FM221500 20004KT 4SM BR OVC015
     FM221600 20005KT 5SM HZ BKN050=

USA.gov is the U.S. government's official web portal to all federal, state and local government web resources and services.